sensor_id;sensor_type;location;lat;lon;timestamp;P1;durP1;ratioP1;P2;durP2;ratioP2
27428;SDS011;14881;48.092;11.574;2022-11-22T00:00:52;7.28;;;5.15;;
27428;SDS011;14881;48.092;11.574;2022-11-22T00:03:20;7.80;;;6.28;;
27428;SDS011;14881;48.092;11.574;2022-11-22T00:05:48;7.93;;;5.80;;
27428;SDS011;14881;48.092;11.574;2022-11-22T00:08:15;6.32;;;5.32;;
27428;SDS011;14881;48.092;11.574;2022-11-22T00:10:43;9.13;;;5.28;;
27428;SDS011;14881;48.092;11.574;2022-11-22T00:13:12;7.35;;;5.95;;
27428;SDS011;14881;48.092;11.574;2022-11-22T00:15:43;6.75;;;5.38;;
27428;SDS011;14881;48.092;11.574;2022-11-22T00:18:11;6.38;;;5.22;;
27428;SDS011;14881;48.092;11.574;2022-11-22T00:20:39;9.10;;;5.30;;
27428;SDS011;14881;48.092;11.574;2022-11-22T00:23:06;6.45;;;5.10;;
27428;SDS011;14881;48.092;11.574;2022-11-22T00:25:34;7.15;;;5.45;;
27428;SDS011;14881;48.092;11.574;2022-11-22T00:28:02;6.57;;;5.85;;
27428;SDS011;14881;48.092;11.574;2022-11-22T00:30:31;7.18;;;5.60;;
27428;SDS011;14881;48.092;11.574;2022-11-22T00:33:05;8.18;;;5.45;;
27428;SDS011;14881;48.092;11.574;2022-11-22T00:35:32;6.18;;;5.30;;
27428;SDS011;14881;48.092;11.574;2022-11-22T00:38:00;5.38;;;4.53;;
27428;SDS011;14881;48.092;11.574;2022-11-22T00:40:27;6.63;;;4.50;;
27428;SDS011;14881;48.092;11.574;2022-11-22T00:42:55;6.38;;;5.13;;
27428;SDS011;14881;48.092;11.574;2022-11-22T00:45:23;8.43;;;5.03;;
27428;SDS011;14881;48.092;11.574;2022-11-22T00:47:52;5.50;;;4.65;;
27428;SDS011;14881;48.092;11.574;2022-11-22T00:50:20;7.10;;;4.60;;
27428;SDS011;14881;48.092;11.574;2022-11-22T00:52:48;7.97;;;4.60;;
27428;SDS011;14881;48.092;11.574;2022-11-22T00:55:15;5.38;;;4.43;;
27428;SDS011;14881;48.092;11.574;2022-11-22T00:57:43;5.30;;;4.35;;
27428;SDS011;14881;48.092;11.574;2022-11-22T01:00:11;5.13;;;4.63;;
27428;SDS011;14881;48.092;11.574;2022-11-22T01:02:39;4.97;;;4.20;;
27428;SDS011;14881;48.092;11.574;2022-11-22T01:05:08;4.88;;;3.85;;
27428;SDS011;14881;48.092;11.574;2022-11-22T01:07:37;4.72;;;4.22;;
27428;SDS011;14881;48.092;11.574;2022-11-22T01:10:05;6.13;;;4.20;;
27428;SDS011;14881;48.092;11.574;2022-11-22T01:12:33;6.45;;;4.22;;
27428;SDS011;14881;48.092;11.574;2022-11-22T01:15:04;4.60;;;3.65;;
27428;SDS011;14881;48.092;11.574;2022-11-22T01:17:32;5.18;;;3.63;;
27428;SDS011;14881;48.092;11.574;2022-11-22T01:20:00;4.93;;;3.72;;
27428;SDS011;14881;48.092;11.574;2022-11-22T01:22:29;4.18;;;3.50;;
27428;SDS011;14881;48.092;11.574;2022-11-22T01:24:57;3.92;;;3.25;;
27428;SDS011;14881;48.092;11.574;2022-11-22T01:27:27;5.03;;;3.47;;
27428;SDS011;14881;48.092;11.574;2022-11-22T01:29:56;4.03;;;3.20;;
27428;SDS011;14881;48.092;11.574;2022-11-22T01:32:24;4.78;;;3.35;;
27428;SDS011;14881;48.092;11.574;2022-11-22T01:34:52;3.75;;;3.20;;
27428;SDS011;14881;48.092;11.574;2022-11-22T01:37:19;3.90;;;3.30;;
27428;SDS011;14881;48.092;11.574;2022-11-22T01:39:49;5.97;;;3.17;;
27428;SDS011;14881;48.092;11.574;2022-11-22T01:42:16;3.20;;;2.90;;
27428;SDS011;14881;48.092;11.574;2022-11-22T01:44:45;3.42;;;3.13;;
27428;SDS011;14881;48.092;11.574;2022-11-22T01:47:15;3.75;;;3.45;;
27428;SDS011;14881;48.092;11.574;2022-11-22T01:49:47;3.80;;;3.25;;
27428;SDS011;14881;48.092;11.574;2022-11-22T01:52:18;4.78;;;3.25;;
27428;SDS011;14881;48.092;11.574;2022-11-22T01:54:50;3.83;;;3.17;;
27428;SDS011;14881;48.092;11.574;2022-11-22T01:57:22;5.00;;;3.25;;
27428;SDS011;14881;48.092;11.574;2022-11-22T01:59:55;5.32;;;3.10;;
27428;SDS011;14881;48.092;11.574;2022-11-22T02:02:25;4.78;;;3.25;;
27428;SDS011;14881;48.092;11.574;2022-11-22T02:04:54;4.78;;;2.92;;
27428;SDS011;14881;48.092;11.574;2022-11-22T02:07:25;4.05;;;3.15;;
27428;SDS011;14881;48.092;11.574;2022-11-22T02:09:58;6.25;;;2.60;;
27428;SDS011;14881;48.092;11.574;2022-11-22T02:12:26;4.28;;;2.90;;
27428;SDS011;14881;48.092;11.574;2022-11-22T02:14:57;5.82;;;2.80;;
27428;SDS011;14881;48.092;11.574;2022-11-22T02:17:25;4.38;;;2.00;;
27428;SDS011;14881;48.092;11.574;2022-11-22T02:19:56;5.22;;;3.20;;
27428;SDS011;14881;48.092;11.574;2022-11-22T02:22:26;4.80;;;2.72;;
27428;SDS011;14881;48.092;11.574;2022-11-22T02:25:06;4.65;;;2.22;;
27428;SDS011;14881;48.092;11.574;2022-11-22T02:27:46;2.70;;;1.95;;
27428;SDS011;14881;48.092;11.574;2022-11-22T02:30:15;4.55;;;2.45;;
27428;SDS011;14881;48.092;11.574;2022-11-22T02:32:46;2.05;;;1.70;;
27428;SDS011;14881;48.092;11.574;2022-11-22T02:35:15;2.20;;;1.90;;
27428;SDS011;14881;48.092;11.574;2022-11-22T02:37:45;2.17;;;1.98;;
27428;SDS011;14881;48.092;11.574;2022-11-22T02:40:15;2.30;;;1.80;;
27428;SDS011;14881;48.092;11.574;2022-11-22T02:42:46;2.63;;;1.90;;
27428;SDS011;14881;48.092;11.574;2022-11-22T02:45:17;3.90;;;1.60;;
27428;SDS011;14881;48.092;11.574;2022-11-22T02:47:47;1.85;;;1.60;;
27428;SDS011;14881;48.092;11.574;2022-11-22T02:50:16;1.60;;;1.50;;
27428;SDS011;14881;48.092;11.574;2022-11-22T02:52:44;1.90;;;1.70;;
27428;SDS011;14881;48.092;11.574;2022-11-22T02:55:12;1.77;;;1.65;;
27428;SDS011;14881;48.092;11.574;2022-11-22T02:57:40;2.08;;;1.75;;
27428;SDS011;14881;48.092;11.574;2022-11-22T03:00:10;2.10;;;1.75;;
27428;SDS011;14881;48.092;11.574;2022-11-22T03:02:39;2.15;;;1.50;;
27428;SDS011;14881;48.092;11.574;2022-11-22T03:05:09;3.38;;;2.38;;
27428;SDS011;14881;48.092;11.574;2022-11-22T03:07:36;1.63;;;1.52;;
27428;SDS011;14881;48.092;11.574;2022-11-22T03:10:04;2.28;;;1.70;;
27428;SDS011;14881;48.092;11.574;2022-11-22T03:12:33;2.72;;;1.63;;
27428;SDS011;14881;48.092;11.574;2022-11-22T03:15:00;4.18;;;1.70;;
27428;SDS011;14881;48.092;11.574;2022-11-22T03:17:30;2.03;;;1.65;;
27428;SDS011;14881;48.092;11.574;2022-11-22T03:19:57;1.92;;;1.40;;
27428;SDS011;14881;48.092;11.574;2022-11-22T03:22:25;1.80;;;1.70;;
27428;SDS011;14881;48.092;11.574;2022-11-22T03:24:53;2.75;;;1.90;;
27428;SDS011;14881;48.092;11.574;2022-11-22T03:27:20;2.08;;;1.60;;
27428;SDS011;14881;48.092;11.574;2022-11-22T03:29:48;2.47;;;1.80;;
27428;SDS011;14881;48.092;11.574;2022-11-22T03:32:16;3.90;;;1.42;;
27428;SDS011;14881;48.092;11.574;2022-11-22T03:34:45;1.88;;;1.42;;
27428;SDS011;14881;48.092;11.574;2022-11-22T03:37:12;1.70;;;1.60;;
27428;SDS011;14881;48.092;11.574;2022-11-22T03:39:40;1.70;;;1.60;;
27428;SDS011;14881;48.092;11.574;2022-11-22T03:42:10;1.52;;;1.42;;
27428;SDS011;14881;48.092;11.574;2022-11-22T03:44:46;4.00;;;1.50;;
27428;SDS011;14881;48.092;11.574;2022-11-22T03:47:14;2.05;;;1.67;;
27428;SDS011;14881;48.092;11.574;2022-11-22T03:49:45;1.70;;;1.60;;
27428;SDS011;14881;48.092;11.574;2022-11-22T03:52:13;5.43;;;2.22;;
27428;SDS011;14881;48.092;11.574;2022-11-22T03:54:40;1.65;;;1.55;;
27428;SDS011;14881;48.092;11.574;2022-11-22T03:57:08;2.28;;;2.08;;
27428;SDS011;14881;48.092;11.574;2022-11-22T03:59:36;2.30;;;1.80;;
27428;SDS011;14881;48.092;11.574;2022-11-22T04:02:03;2.15;;;1.95;;
27428;SDS011;14881;48.092;11.574;2022-11-22T04:04:31;3.03;;;1.98;;
27428;SDS011;14881;48.092;11.574;2022-11-22T04:07:00;2.10;;;1.90;;
27428;SDS011;14881;48.092;11.574;2022-11-22T04:09:28;4.55;;;1.98;;
27428;SDS011;14881;48.092;11.574;2022-11-22T04:11:56;3.15;;;2.25;;
27428;SDS011;14881;48.092;11.574;2022-11-22T04:14:24;2.95;;;2.10;;
27428;SDS011;14881;48.092;11.574;2022-11-22T04:17:11;3.00;;;2.15;;
27428;SDS011;14881;48.092;11.574;2022-11-22T04:19:39;2.22;;;2.03;;
27428;SDS011;14881;48.092;11.574;2022-11-22T04:22:29;2.72;;;2.10;;
27428;SDS011;14881;48.092;11.574;2022-11-22T04:24:55;2.65;;;2.03;;
27428;SDS011;14881;48.092;11.574;2022-11-22T04:27:41;2.15;;;1.95;;
27428;SDS011;14881;48.092;11.574;2022-11-22T04:30:09;2.22;;;2.03;;
27428;SDS011;14881;48.092;11.574;2022-11-22T04:32:45;3.20;;;2.35;;
27428;SDS011;14881;48.092;11.574;2022-11-22T04:35:12;2.67;;;2.22;;
27428;SDS011;14881;48.092;11.574;2022-11-22T04:37:42;3.55;;;2.50;;
27428;SDS011;14881;48.092;11.574;2022-11-22T04:40:16;2.42;;;1.80;;
27428;SDS011;14881;48.092;11.574;2022-11-22T04:42:44;3.30;;;2.17;;
27428;SDS011;14881;48.092;11.574;2022-11-22T04:45:29;5.65;;;2.20;;
27428;SDS011;14881;48.092;11.574;2022-11-22T04:47:56;3.30;;;1.80;;
27428;SDS011;14881;48.092;11.574;2022-11-22T04:50:28;2.78;;;1.80;;
27428;SDS011;14881;48.092;11.574;2022-11-22T04:53:15;3.67;;;1.70;;
27428;SDS011;14881;48.092;11.574;2022-11-22T04:55:45;1.73;;;1.35;;
27428;SDS011;14881;48.092;11.574;2022-11-22T04:58:14;1.70;;;1.60;;
27428;SDS011;14881;48.092;11.574;2022-11-22T05:00:42;2.53;;;1.75;;
27428;SDS011;14881;48.092;11.574;2022-11-22T05:03:10;1.95;;;1.70;;
27428;SDS011;14881;48.092;11.574;2022-11-22T05:05:39;2.08;;;1.63;;
27428;SDS011;14881;48.092;11.574;2022-11-22T05:08:08;2.60;;;1.48;;
27428;SDS011;14881;48.092;11.574;2022-11-22T05:10:38;3.00;;;1.83;;
27428;SDS011;14881;48.092;11.574;2022-11-22T05:13:26;4.40;;;1.45;;
27428;SDS011;14881;48.092;11.574;2022-11-22T05:15:55;2.03;;;1.77;;
27428;SDS011;14881;48.092;11.574;2022-11-22T05:18:24;3.50;;;1.75;;
27428;SDS011;14881;48.092;11.574;2022-11-22T05:20:52;2.25;;;1.60;;
27428;SDS011;14881;48.092;11.574;2022-11-22T05:23:21;3.88;;;1.63;;
27428;SDS011;14881;48.092;11.574;2022-11-22T05:26:11;1.88;;;1.75;;
27428;SDS011;14881;48.092;11.574;2022-11-22T05:28:38;1.90;;;1.58;;
27428;SDS011;14881;48.092;11.574;2022-11-22T05:31:07;4.47;;;1.60;;
27428;SDS011;14881;48.092;11.574;2022-11-22T05:33:36;2.03;;;1.77;;
27428;SDS011;14881;48.092;11.574;2022-11-22T05:36:05;4.95;;;2.08;;
27428;SDS011;14881;48.092;11.574;2022-11-22T05:38:34;3.50;;;2.05;;
27428;SDS011;14881;48.092;11.574;2022-11-22T05:41:03;5.45;;;1.95;;
27428;SDS011;14881;48.092;11.574;2022-11-22T05:43:33;2.13;;;1.65;;
27428;SDS011;14881;48.092;11.574;2022-11-22T05:46:04;3.95;;;1.80;;
27428;SDS011;14881;48.092;11.574;2022-11-22T05:48:33;2.00;;;1.80;;
27428;SDS011;14881;48.092;11.574;2022-11-22T05:51:02;3.90;;;2.40;;
27428;SDS011;14881;48.092;11.574;2022-11-22T05:53:30;4.28;;;2.60;;
27428;SDS011;14881;48.092;11.574;2022-11-22T05:56:02;5.55;;;2.53;;
27428;SDS011;14881;48.092;11.574;2022-11-22T05:58:30;3.85;;;1.98;;
27428;SDS011;14881;48.092;11.574;2022-11-22T06:01:03;3.53;;;2.10;;
27428;SDS011;14881;48.092;11.574;2022-11-22T06:03:32;3.53;;;2.50;;
27428;SDS011;14881;48.092;11.574;2022-11-22T06:06:00;2.63;;;2.42;;
27428;SDS011;14881;48.092;11.574;2022-11-22T06:08:28;5.30;;;2.30;;
27428;SDS011;14881;48.092;11.574;2022-11-22T06:10:58;4.00;;;1.90;;
27428;SDS011;14881;48.092;11.574;2022-11-22T06:13:34;3.80;;;2.13;;
27428;SDS011;14881;48.092;11.574;2022-11-22T06:16:04;3.63;;;2.50;;
27428;SDS011;14881;48.092;11.574;2022-11-22T06:18:32;2.50;;;2.30;;
27428;SDS011;14881;48.092;11.574;2022-11-22T06:21:02;5.65;;;2.47;;
27428;SDS011;14881;48.092;11.574;2022-11-22T06:23:31;3.45;;;2.22;;
27428;SDS011;14881;48.092;11.574;2022-11-22T06:25:59;2.92;;;2.28;;
27428;SDS011;14881;48.092;11.574;2022-11-22T06:28:29;3.20;;;2.58;;
27428;SDS011;14881;48.092;11.574;2022-11-22T06:30:59;2.47;;;2.10;;
27428;SDS011;14881;48.092;11.574;2022-11-22T06:33:28;5.85;;;2.58;;
27428;SDS011;14881;48.092;11.574;2022-11-22T06:35:59;5.35;;;2.60;;
27428;SDS011;14881;48.092;11.574;2022-11-22T06:38:29;2.92;;;2.53;;
27428;SDS011;14881;48.092;11.574;2022-11-22T06:41:00;5.05;;;2.63;;
27428;SDS011;14881;48.092;11.574;2022-11-22T06:43:28;5.82;;;2.72;;
27428;SDS011;14881;48.092;11.574;2022-11-22T06:45:56;4.00;;;2.58;;
27428;SDS011;14881;48.092;11.574;2022-11-22T06:48:25;3.63;;;2.63;;
27428;SDS011;14881;48.092;11.574;2022-11-22T06:50:58;2.85;;;2.55;;
27428;SDS011;14881;48.092;11.574;2022-11-22T06:53:26;4.97;;;2.92;;
27428;SDS011;14881;48.092;11.574;2022-11-22T06:56:12;3.67;;;2.60;;
27428;SDS011;14881;48.092;11.574;2022-11-22T06:58:41;3.60;;;2.60;;
27428;SDS011;14881;48.092;11.574;2022-11-22T07:01:10;3.13;;;2.50;;
27428;SDS011;14881;48.092;11.574;2022-11-22T07:03:40;6.22;;;3.40;;
27428;SDS011;14881;48.092;11.574;2022-11-22T07:06:11;3.38;;;2.65;;
27428;SDS011;14881;48.092;11.574;2022-11-22T07:08:39;5.80;;;3.53;;
27428;SDS011;14881;48.092;11.574;2022-11-22T07:11:10;6.28;;;3.03;;
27428;SDS011;14881;48.092;11.574;2022-11-22T07:13:39;5.00;;;3.05;;
27428;SDS011;14881;48.092;11.574;2022-11-22T07:16:07;5.20;;;3.63;;
27428;SDS011;14881;48.092;11.574;2022-11-22T07:18:37;5.30;;;3.65;;
27428;SDS011;14881;48.092;11.574;2022-11-22T07:21:05;5.30;;;3.90;;
27428;SDS011;14881;48.092;11.574;2022-11-22T07:23:40;8.35;;;3.53;;
27428;SDS011;14881;48.092;11.574;2022-11-22T07:26:09;7.03;;;3.42;;
27428;SDS011;14881;48.092;11.574;2022-11-22T07:28:38;6.47;;;3.40;;
27428;SDS011;14881;48.092;11.574;2022-11-22T07:31:06;9.18;;;3.90;;
27428;SDS011;14881;48.092;11.574;2022-11-22T07:33:38;7.50;;;3.80;;
27428;SDS011;14881;48.092;11.574;2022-11-22T07:36:07;6.65;;;3.50;;
27428;SDS011;14881;48.092;11.574;2022-11-22T07:38:36;8.85;;;4.45;;
27428;SDS011;14881;48.092;11.574;2022-11-22T07:41:06;9.38;;;4.30;;
27428;SDS011;14881;48.092;11.574;2022-11-22T07:43:34;9.50;;;4.22;;
27428;SDS011;14881;48.092;11.574;2022-11-22T07:46:03;9.07;;;3.80;;
27428;SDS011;14881;48.092;11.574;2022-11-22T07:48:33;9.77;;;5.00;;
27428;SDS011;14881;48.092;11.574;2022-11-22T07:51:04;10.30;;;4.55;;
27428;SDS011;14881;48.092;11.574;2022-11-22T07:53:33;11.68;;;4.32;;
27428;SDS011;14881;48.092;11.574;2022-11-22T07:56:01;10.23;;;4.07;;
27428;SDS011;14881;48.092;11.574;2022-11-22T07:58:31;10.23;;;4.20;;
27428;SDS011;14881;48.092;11.574;2022-11-22T08:01:02;8.52;;;4.40;;
27428;SDS011;14881;48.092;11.574;2022-11-22T08:03:31;10.73;;;4.78;;
27428;SDS011;14881;48.092;11.574;2022-11-22T08:05:59;7.22;;;3.60;;
27428;SDS011;14881;48.092;11.574;2022-11-22T08:08:27;11.90;;;4.68;;
27428;SDS011;14881;48.092;11.574;2022-11-22T08:10:55;8.50;;;4.18;;
27428;SDS011;14881;48.092;11.574;2022-11-22T08:13:23;11.23;;;4.95;;
27428;SDS011;14881;48.092;11.574;2022-11-22T08:15:53;8.43;;;4.07;;
27428;SDS011;14881;48.092;11.574;2022-11-22T08:18:30;7.18;;;4.40;;
27428;SDS011;14881;48.092;11.574;2022-11-22T08:21:02;6.35;;;4.18;;
27428;SDS011;14881;48.092;11.574;2022-11-22T08:23:31;11.20;;;6.40;;
27428;SDS011;14881;48.092;11.574;2022-11-22T08:25:59;11.50;;;7.30;;
27428;SDS011;14881;48.092;11.574;2022-11-22T08:28:27;10.88;;;7.80;;
27428;SDS011;14881;48.092;11.574;2022-11-22T08:31:00;12.20;;;6.28;;
27428;SDS011;14881;48.092;11.574;2022-11-22T08:33:30;14.60;;;8.10;;
27428;SDS011;14881;48.092;11.574;2022-11-22T08:35:57;12.88;;;6.88;;
27428;SDS011;14881;48.092;11.574;2022-11-22T08:38:25;18.05;;;7.47;;
27428;SDS011;14881;48.092;11.574;2022-11-22T08:40:53;8.68;;;5.50;;
27428;SDS011;14881;48.092;11.574;2022-11-22T08:43:21;9.93;;;5.40;;
27428;SDS011;14881;48.092;11.574;2022-11-22T08:45:52;7.97;;;4.68;;
27428;SDS011;14881;48.092;11.574;2022-11-22T08:48:23;10.35;;;4.45;;
27428;SDS011;14881;48.092;11.574;2022-11-22T08:50:51;11.52;;;5.78;;
27428;SDS011;14881;48.092;11.574;2022-11-22T08:53:24;7.38;;;3.85;;
27428;SDS011;14881;48.092;11.574;2022-11-22T08:55:54;8.80;;;4.43;;
27428;SDS011;14881;48.092;11.574;2022-11-22T08:58:22;9.18;;;4.20;;
27428;SDS011;14881;48.092;11.574;2022-11-22T09:00:50;10.35;;;4.38;;
27428;SDS011;14881;48.092;11.574;2022-11-22T09:03:17;13.30;;;3.78;;
27428;SDS011;14881;48.092;11.574;2022-11-22T09:05:46;13.30;;;4.05;;
27428;SDS011;14881;48.092;11.574;2022-11-22T09:08:34;12.88;;;3.67;;
27428;SDS011;14881;48.092;11.574;2022-11-22T09:11:09;10.82;;;3.42;;
27428;SDS011;14881;48.092;11.574;2022-11-22T09:13:38;13.20;;;4.90;;
27428;SDS011;14881;48.092;11.574;2022-11-22T09:16:07;16.77;;;4.30;;
27428;SDS011;14881;48.092;11.574;2022-11-22T09:18:36;10.93;;;3.97;;
27428;SDS011;14881;48.092;11.574;2022-11-22T09:21:06;14.50;;;5.90;;
27428;SDS011;14881;48.092;11.574;2022-11-22T09:23:36;16.58;;;5.95;;
27428;SDS011;14881;48.092;11.574;2022-11-22T09:26:04;12.13;;;5.18;;
27428;SDS011;14881;48.092;11.574;2022-11-22T09:28:34;11.20;;;4.57;;
27428;SDS011;14881;48.092;11.574;2022-11-22T09:31:03;13.35;;;5.20;;
27428;SDS011;14881;48.092;11.574;2022-11-22T09:33:34;10.68;;;4.55;;
27428;SDS011;14881;48.092;11.574;2022-11-22T09:36:08;9.52;;;4.50;;
27428;SDS011;14881;48.092;11.574;2022-11-22T09:38:40;10.00;;;4.20;;
27428;SDS011;14881;48.092;11.574;2022-11-22T09:41:12;11.70;;;4.20;;
27428;SDS011;14881;48.092;11.574;2022-11-22T09:43:50;10.88;;;4.00;;
27428;SDS011;14881;48.092;11.574;2022-11-22T09:46:29;10.43;;;4.25;;
27428;SDS011;14881;48.092;11.574;2022-11-22T09:49:21;11.63;;;3.70;;
27428;SDS011;14881;48.092;11.574;2022-11-22T09:51:58;9.15;;;3.80;;
27428;SDS011;14881;48.092;11.574;2022-11-22T09:54:37;10.25;;;3.78;;
27428;SDS011;14881;48.092;11.574;2022-11-22T09:57:11;9.50;;;4.05;;
27428;SDS011;14881;48.092;11.574;2022-11-22T09:59:44;12.98;;;4.55;;
27428;SDS011;14881;48.092;11.574;2022-11-22T10:02:14;14.40;;;4.95;;
27428;SDS011;14881;48.092;11.574;2022-11-22T10:04:50;8.77;;;4.35;;
27428;SDS011;14881;48.092;11.574;2022-11-22T10:07:28;10.40;;;3.33;;
27428;SDS011;14881;48.092;11.574;2022-11-22T10:10:02;7.70;;;3.30;;
27428;SDS011;14881;48.092;11.574;2022-11-22T10:12:38;8.50;;;2.83;;
27428;SDS011;14881;48.092;11.574;2022-11-22T10:15:18;10.77;;;2.60;;
27428;SDS011;14881;48.092;11.574;2022-11-22T10:17:56;10.57;;;3.05;;
27428;SDS011;14881;48.092;11.574;2022-11-22T10:20:28;7.57;;;2.60;;
27428;SDS011;14881;48.092;11.574;2022-11-22T10:22:59;10.02;;;3.13;;
27428;SDS011;14881;48.092;11.574;2022-11-22T10:25:33;6.30;;;2.83;;
27428;SDS011;14881;48.092;11.574;2022-11-22T10:28:10;9.30;;;2.90;;
27428;SDS011;14881;48.092;11.574;2022-11-22T10:30:45;12.23;;;4.32;;
27428;SDS011;14881;48.092;11.574;2022-11-22T10:33:24;9.65;;;2.78;;
27428;SDS011;14881;48.092;11.574;2022-11-22T10:36:03;10.43;;;3.70;;
27428;SDS011;14881;48.092;11.574;2022-11-22T10:38:52;9.40;;;3.15;;
27428;SDS011;14881;48.092;11.574;2022-11-22T10:41:33;7.60;;;2.63;;
27428;SDS011;14881;48.092;11.574;2022-11-22T10:44:16;6.55;;;2.80;;
27428;SDS011;14881;48.092;11.574;2022-11-22T10:46:57;7.63;;;2.40;;
27428;SDS011;14881;48.092;11.574;2022-11-22T10:49:40;6.65;;;2.40;;
27428;SDS011;14881;48.092;11.574;2022-11-22T10:52:18;10.20;;;2.67;;
27428;SDS011;14881;48.092;11.574;2022-11-22T10:54:59;7.85;;;2.63;;
27428;SDS011;14881;48.092;11.574;2022-11-22T10:57:37;12.50;;;2.83;;
27428;SDS011;14881;48.092;11.574;2022-11-22T11:00:16;8.52;;;2.90;;
27428;SDS011;14881;48.092;11.574;2022-11-22T11:03:01;7.60;;;2.97;;
27428;SDS011;14881;48.092;11.574;2022-11-22T11:05:40;8.55;;;3.20;;
27428;SDS011;14881;48.092;11.574;2022-11-22T11:08:35;5.20;;;2.33;;
27428;SDS011;14881;48.092;11.574;2022-11-22T11:11:27;9.20;;;2.20;;
27428;SDS011;14881;48.092;11.574;2022-11-22T11:13:57;9.73;;;2.25;;
27428;SDS011;14881;48.092;11.574;2022-11-22T11:16:29;7.57;;;1.70;;
27428;SDS011;14881;48.092;11.574;2022-11-22T11:19:04;11.07;;;1.85;;
27428;SDS011;14881;48.092;11.574;2022-11-22T11:21:40;6.95;;;2.15;;
27428;SDS011;14881;48.092;11.574;2022-11-22T11:24:10;6.72;;;1.98;;
27428;SDS011;14881;48.092;11.574;2022-11-22T11:26:42;5.95;;;2.17;;
27428;SDS011;14881;48.092;11.574;2022-11-22T11:29:27;7.60;;;2.50;;
27428;SDS011;14881;48.092;11.574;2022-11-22T11:34:32;12.98;;;2.13;;
27428;SDS011;14881;48.092;11.574;2022-11-22T11:37:01;9.20;;;2.28;;
27428;SDS011;14881;48.092;11.574;2022-11-22T11:39:31;8.10;;;2.10;;
27428;SDS011;14881;48.092;11.574;2022-11-22T11:42:02;5.30;;;2.13;;
27428;SDS011;14881;48.092;11.574;2022-11-22T11:44:48;8.25;;;2.33;;
27428;SDS011;14881;48.092;11.574;2022-11-22T11:47:17;3.47;;;2.10;;
27428;SDS011;14881;48.092;11.574;2022-11-22T11:49:49;8.10;;;2.20;;
27428;SDS011;14881;48.092;11.574;2022-11-22T11:52:18;7.47;;;2.15;;
27428;SDS011;14881;48.092;11.574;2022-11-22T11:54:49;8.88;;;2.30;;
27428;SDS011;14881;48.092;11.574;2022-11-22T11:57:22;5.53;;;2.30;;
27428;SDS011;14881;48.092;11.574;2022-11-22T11:59:54;5.78;;;2.30;;
27428;SDS011;14881;48.092;11.574;2022-11-22T12:02:24;6.05;;;2.40;;
27428;SDS011;14881;48.092;11.574;2022-11-22T12:05:00;7.93;;;2.72;;
27428;SDS011;14881;48.092;11.574;2022-11-22T12:07:37;11.48;;;5.63;;
27428;SDS011;14881;48.092;11.574;2022-11-22T12:13:09;7.03;;;3.20;;
27428;SDS011;14881;48.092;11.574;2022-11-22T12:15:45;10.48;;;3.65;;
27428;SDS011;14881;48.092;11.574;2022-11-22T12:18:34;8.68;;;2.30;;
27428;SDS011;14881;48.092;11.574;2022-11-22T12:21:11;7.45;;;2.00;;
27428;SDS011;14881;48.092;11.574;2022-11-22T12:23:46;8.10;;;2.33;;
27428;SDS011;14881;48.092;11.574;2022-11-22T12:26:39;4.43;;;1.90;;
27428;SDS011;14881;48.092;11.574;2022-11-22T12:29:09;7.80;;;2.38;;
27428;SDS011;14881;48.092;11.574;2022-11-22T12:31:39;8.45;;;2.13;;
27428;SDS011;14881;48.092;11.574;2022-11-22T12:34:13;6.35;;;2.22;;
27428;SDS011;14881;48.092;11.574;2022-11-22T12:36:45;6.35;;;2.25;;
27428;SDS011;14881;48.092;11.574;2022-11-22T12:39:17;5.97;;;1.77;;
27428;SDS011;14881;48.092;11.574;2022-11-22T12:41:50;7.55;;;2.22;;
27428;SDS011;14881;48.092;11.574;2022-11-22T12:44:24;6.80;;;2.20;;
27428;SDS011;14881;48.092;11.574;2022-11-22T12:46:55;6.70;;;2.15;;
27428;SDS011;14881;48.092;11.574;2022-11-22T12:49:29;4.82;;;2.05;;
27428;SDS011;14881;48.092;11.574;2022-11-22T12:52:03;4.85;;;2.10;;
27428;SDS011;14881;48.092;11.574;2022-11-22T12:54:40;5.05;;;2.10;;
27428;SDS011;14881;48.092;11.574;2022-11-22T12:57:13;4.25;;;2.20;;
27428;SDS011;14881;48.092;11.574;2022-11-22T12:59:49;7.50;;;2.70;;
27428;SDS011;14881;48.092;11.574;2022-11-22T13:02:26;2.90;;;1.95;;
27428;SDS011;14881;48.092;11.574;2022-11-22T13:04:59;2.47;;;2.20;;
27428;SDS011;14881;48.092;11.574;2022-11-22T13:07:35;7.03;;;2.40;;
27428;SDS011;14881;48.092;11.574;2022-11-22T13:10:17;6.47;;;2.65;;
27428;SDS011;14881;48.092;11.574;2022-11-22T13:12:52;7.85;;;2.75;;
27428;SDS011;14881;48.092;11.574;2022-11-22T13:15:26;6.45;;;2.30;;
27428;SDS011;14881;48.092;11.574;2022-11-22T13:17:56;6.57;;;3.13;;
27428;SDS011;14881;48.092;11.574;2022-11-22T13:20:25;10.88;;;3.58;;
27428;SDS011;14881;48.092;11.574;2022-11-22T13:22:56;8.70;;;3.40;;
27428;SDS011;14881;48.092;11.574;2022-11-22T13:25:44;12.05;;;2.60;;
27428;SDS011;14881;48.092;11.574;2022-11-22T13:31:03;5.80;;;2.42;;
27428;SDS011;14881;48.092;11.574;2022-11-22T13:33:34;7.22;;;2.33;;
27428;SDS011;14881;48.092;11.574;2022-11-22T13:36:23;4.75;;;2.30;;
27428;SDS011;14881;48.092;11.574;2022-11-22T13:39:04;6.80;;;2.45;;
27428;SDS011;14881;48.092;11.574;2022-11-22T13:41:38;4.32;;;2.40;;
27428;SDS011;14881;48.092;11.574;2022-11-22T13:53:21;7.80;;;2.90;;
27428;SDS011;14881;48.092;11.574;2022-11-22T13:55:54;7.27;;;2.80;;
27428;SDS011;14881;48.092;11.574;2022-11-22T14:01:52;4.10;;;2.80;;
27428;SDS011;14881;48.092;11.574;2022-11-22T14:04:28;5.93;;;3.33;;
27428;SDS011;14881;48.092;11.574;2022-11-22T14:07:04;7.03;;;3.90;;
27428;SDS011;14881;48.092;11.574;2022-11-22T14:09:52;6.22;;;3.40;;
27428;SDS011;14881;48.092;11.574;2022-11-22T14:12:33;7.90;;;3.45;;
27428;SDS011;14881;48.092;11.574;2022-11-22T14:15:24;4.97;;;3.05;;
27428;SDS011;14881;48.092;11.574;2022-11-22T14:18:08;5.20;;;2.85;;
27428;SDS011;14881;48.092;11.574;2022-11-22T14:20:55;5.70;;;3.15;;
27428;SDS011;14881;48.092;11.574;2022-11-22T14:23:33;10.15;;;3.40;;
27428;SDS011;14881;48.092;11.574;2022-11-22T14:26:15;8.88;;;3.38;;
27428;SDS011;14881;48.092;11.574;2022-11-22T14:29:00;6.95;;;3.15;;
27428;SDS011;14881;48.092;11.574;2022-11-22T14:31:54;6.32;;;3.00;;
27428;SDS011;14881;48.092;11.574;2022-11-22T14:34:28;7.38;;;3.88;;
27428;SDS011;14881;48.092;11.574;2022-11-22T14:45:59;8.65;;;3.72;;
27428;SDS011;14881;48.092;11.574;2022-11-22T14:48:30;11.05;;;3.95;;
27428;SDS011;14881;48.092;11.574;2022-11-22T14:51:04;7.47;;;4.13;;
27428;SDS011;14881;48.092;11.574;2022-11-22T14:53:35;6.72;;;3.47;;
27428;SDS011;14881;48.092;11.574;2022-11-22T14:56:13;13.15;;;4.43;;
27428;SDS011;14881;48.092;11.574;2022-11-22T14:58:45;13.27;;;4.60;;
27428;SDS011;14881;48.092;11.574;2022-11-22T15:04:35;9.27;;;3.85;;
27428;SDS011;14881;48.092;11.574;2022-11-22T15:07:45;6.50;;;3.40;;
27428;SDS011;14881;48.092;11.574;2022-11-22T15:17:08;11.05;;;4.15;;
27428;SDS011;14881;48.092;11.574;2022-11-22T15:20:02;9.90;;;4.05;;
27428;SDS011;14881;48.092;11.574;2022-11-22T15:22:50;9.38;;;3.97;;
27428;SDS011;14881;48.092;11.574;2022-11-22T15:25:38;5.40;;;4.07;;
27428;SDS011;14881;48.092;11.574;2022-11-22T15:28:27;7.82;;;4.03;;
27428;SDS011;14881;48.092;11.574;2022-11-22T15:31:16;6.53;;;4.03;;
27428;SDS011;14881;48.092;11.574;2022-11-22T15:34:14;5.82;;;3.80;;
27428;SDS011;14881;48.092;11.574;2022-11-22T15:37:07;5.47;;;4.03;;
27428;SDS011;14881;48.092;11.574;2022-11-22T15:40:05;6.10;;;4.13;;
27428;SDS011;14881;48.092;11.574;2022-11-22T15:42:55;8.25;;;4.47;;
27428;SDS011;14881;48.092;11.574;2022-11-22T15:45:46;14.35;;;5.88;;